Kennedy Grace — WDG9120 — position and weather

sailwx.info

Track history (hours):
 
Tides and Currents Weather Stations Pressure Air Temp Water Temp Dewpoint Dewpoint Depression Visibility Wind Speed Wind Dir Waves Ship Positions

Kennedy Grace

Owner: Settoon Towing, LLC, Houma, LA. More information available from US FCC via Universal Licensing System and Coast Guard Vessel Documentation Center.

Last reported at 2017-Nov-12 22:25 UTC. Time now 2017-Nov-21 09:57 UTC.
Position N 29°47' W 095°05'.
Warning: this ship's position is 8 days out of date.

; draft 3 m.

Type: Towing. MMSI: 367584530.

Date/timePositionNaut miles runAvg speedWind from/ knotsBaromVisibWave heightAir tempDewpointWater temp
2017-Nov-12 22:25N 29°47' W 095°05'2 5.2
2017-Nov-12 21:57N 29°45' W 095°04'3 6.6
2017-Nov-12 21:30N 29°43' W 095°01'3 6.9
2017-Nov-12 21:00N 29°40' W 094°59'4 7.7
2017-Nov-12 20:30N 29°37' W 094°57'4 7.7
2017-Nov-12 20:00N 29°34' W 094°55'5 0.6
2017-Nov-12 11:14N 29°29' W 094°52'2 7.7
2017-Nov-12 10:55N 29°31' W 094°53'3 7.5
2017-Nov-12 10:30N 29°34' W 094°55'4 7.6
2017-Nov-12 10:00N 29°37' W 094°57'4 7.7
2017-Nov-12 09:30N 29°41' W 094°59'5 6.7
2017-Nov-12 08:45N 29°44' W 095°03'4 1.3
2017-Nov-12 05:41N 29°47' W 095°06'0 0.0
2017-Nov-12 05:13N 29°47' W 095°06'0 0.0
2017-Nov-12 03:32N 29°47' W 095°06'2 0.2
2017-Nov-11 17:07N 29°45' W 095°06'1 0.0
2017-Nov-09 23:03N 29°46' W 095°06'0 6.4
2017-Nov-09 23:00N 29°46' W 095°06'3 5.8
2017-Nov-09 22:29N 29°44' W 095°03'3 0.1
2017-Nov-08 18:45N 29°46' W 095°05'4 1.1
2017-Nov-08 15:22N 29°44' W 095°08'3 7.4
2017-Nov-08 14:57N 29°45' W 095°11'2 3.8
2017-Nov-08 14:28N 29°43' W 095°13'1 0.9
2017-Nov-08 13:40N 29°44' W 095°14'0 0.1
2017-Nov-08 13:30N 29°44' W 095°14'0 0.1
2017-Nov-08 12:48N 29°43' W 095°14'1 3.3
2017-Nov-08 12:29N 29°44' W 095°13'2 4.4
2017-Nov-08 11:57N 29°45' W 095°11'3 5.6
2017-Nov-08 11:28N 29°44' W 095°08'1 0.1
2017-Nov-08 00:42N 29°44' W 095°07'1 7.0
2017-Nov-08 00:30N 29°44' W 095°08'3 6.7
2017-Nov-08 00:00N 29°44' W 095°12'3 6.1
2017-Nov-07 23:28N 29°44' W 095°16'1 1.7
2017-Nov-07 23:00N 29°44' W 095°17'0 0.0
2017-Nov-07 22:30N 29°44' W 095°17'0 0.0
2017-Nov-07 22:00N 29°44' W 095°17'0 0.0
2017-Nov-07 21:22N 29°44' W 095°17'0 0.0
2017-Nov-07 21:00N 29°44' W 095°17'0 0.0
2017-Nov-07 20:28N 29°44' W 095°17'0 0.0
2017-Nov-07 19:56N 29°44' W 095°17'0 0.0
2017-Nov-07 19:30N 29°44' W 095°17'0 0.0
2017-Nov-07 19:00N 29°44' W 095°17'0 0.0
2017-Nov-07 18:30N 29°44' W 095°17'0 0.0
2017-Nov-07 18:00N 29°44' W 095°17'0 0.0
2017-Nov-07 17:30N 29°44' W 095°17'0 0.0
2017-Nov-07 17:00N 29°44' W 095°17'0 0.0
2017-Nov-07 16:30N 29°44' W 095°17'0 0.0
2017-Nov-07 15:59N 29°44' W 095°17'0 0.0
2017-Nov-07 15:29N 29°44' W 095°17'0 0.0
2017-Nov-07 14:58N 29°44' W 095°17'0 0.0
2017-Nov-07 13:06N 29°44' W 095°17'0 0.1
2017-Nov-07 13:00N 29°44' W 095°17'0 0.0
2017-Nov-07 12:30N 29°44' W 095°17'0 0.3
2017-Nov-07 12:00N 29°44' W 095°17'1 1.6
2017-Nov-07 11:30N 29°44' W 095°16'3 4.2
2017-Nov-07 10:51N 29°44' W 095°13'3 4.3
2017-Nov-07 10:07N 29°44' W 095°09'4 0.1
2017-Nov-05 21:48N 29°46' W 095°05'1 0.0
2017-Nov-04 22:03N 29°46' W 095°05'1 7.4
2017-Nov-04 21:58N 29°46' W 095°05'3 7.5
2017-Nov-04 21:30N 29°44' W 095°02'3 6.9
2017-Nov-04 21:01N 29°41' W 094°59'4 7.5
2017-Nov-04 20:31N 29°38' W 094°58'4 7.6
2017-Nov-04 20:01N 29°34' W 094°55'6 0.2
2017-Nov-03 12:03N 29°30' W 094°52'1 7.1
2017-Nov-03 11:55N 29°31' W 094°53'3 7.2
2017-Nov-03 11:30N 29°33' W 094°55'3 6.9
2017-Nov-03 11:01N 29°36' W 094°57'4 6.9
2017-Nov-03 10:26N 29°39' W 094°58'3 7.0
2017-Nov-03 10:00N 29°42' W 095°00'4 6.5
2017-Nov-03 09:21N 29°45' W 095°04'3 0.5
2017-Nov-03 03:58N 29°47' W 095°06'3 5.2
2017-Nov-03 03:29N 29°44' W 095°07'4 7.1
2017-Nov-03 02:58N 29°45' W 095°11'3 5.6
2017-Nov-03 02:30N 29°44' W 095°14'0 0.0
2017-Nov-03 02:00N 29°44' W 095°14'2 2.9
2017-Nov-03 01:28N 29°44' W 095°12'2 2.9
2017-Nov-03 00:57N 29°45' W 095°10'3 5.6
2017-Nov-03 00:22N 29°44' W 095°07'  
Track history (hours):
 
Tides and Currents Weather Stations Pressure Air Temp Water Temp Dewpoint Dewpoint Depression Visibility Wind Speed Wind Dir Waves Ship Positions

Kennedy Grace

Owner: Settoon Towing, LLC, Houma, LA. More information available from US FCC via Universal Licensing System and Coast Guard Vessel Documentation Center.

Last reported at 2017-Nov-12 22:25 UTC. Time now 2017-Nov-21 09:57 UTC.
Position N 29°47' W 095°05'.
Warning: this ship's position is 8 days out of date.

; draft 3 m.

Type: Towing. MMSI: 367584530.

Date/timePositionNaut miles runAvg speedWind from/ knotsBaromVisibWave heightAir tempDewpointWater temp
2017-Nov-12 22:25N 29°47' W 095°05'2 5.2
2017-Nov-12 21:57N 29°45' W 095°04'3 6.6
2017-Nov-12 21:30N 29°43' W 095°01'3 6.9
2017-Nov-12 21:00N 29°40' W 094°59'4 7.7
2017-Nov-12 20:30N 29°37' W 094°57'4 7.7
2017-Nov-12 20:00N 29°34' W 094°55'5 0.6
2017-Nov-12 11:14N 29°29' W 094°52'2 7.7
2017-Nov-12 10:55N 29°31' W 094°53'3 7.5
2017-Nov-12 10:30N 29°34' W 094°55'4 7.6
2017-Nov-12 10:00N 29°37' W 094°57'4 7.7
2017-Nov-12 09:30N 29°41' W 094°59'5 6.7
2017-Nov-12 08:45N 29°44' W 095°03'4 1.3
2017-Nov-12 05:41N 29°47' W 095°06'0 0.0
2017-Nov-12 05:13N 29°47' W 095°06'0 0.0
2017-Nov-12 03:32N 29°47' W 095°06'2 0.2
2017-Nov-11 17:07N 29°45' W 095°06'1 0.0
2017-Nov-09 23:03N 29°46' W 095°06'0 6.4
2017-Nov-09 23:00N 29°46' W 095°06'3 5.8
2017-Nov-09 22:29N 29°44' W 095°03'3 0.1
2017-Nov-08 18:45N 29°46' W 095°05'4 1.1
2017-Nov-08 15:22N 29°44' W 095°08'3 7.4
2017-Nov-08 14:57N 29°45' W 095°11'2 3.8
2017-Nov-08 14:28N 29°43' W 095°13'1 0.9
2017-Nov-08 13:40N 29°44' W 095°14'0 0.1
2017-Nov-08 13:30N 29°44' W 095°14'0 0.1
2017-Nov-08 12:48N 29°43' W 095°14'1 3.3
2017-Nov-08 12:29N 29°44' W 095°13'2 4.4
2017-Nov-08 11:57N 29°45' W 095°11'3 5.6
2017-Nov-08 11:28N 29°44' W 095°08'1 0.1
2017-Nov-08 00:42N 29°44' W 095°07'1 7.0
2017-Nov-08 00:30N 29°44' W 095°08'3 6.7
2017-Nov-08 00:00N 29°44' W 095°12'3 6.1
2017-Nov-07 23:28N 29°44' W 095°16'1 1.7
2017-Nov-07 23:00N 29°44' W 095°17'0 0.0
2017-Nov-07 22:30N 29°44' W 095°17'0 0.0
2017-Nov-07 22:00N 29°44' W 095°17'0 0.0
2017-Nov-07 21:22N 29°44' W 095°17'0 0.0
2017-Nov-07 21:00N 29°44' W 095°17'0 0.0
2017-Nov-07 20:28N 29°44' W 095°17'0 0.0
2017-Nov-07 19:56N 29°44' W 095°17'0 0.0
2017-Nov-07 19:30N 29°44' W 095°17'0 0.0
2017-Nov-07 19:00N 29°44' W 095°17'0 0.0
2017-Nov-07 18:30N 29°44' W 095°17'0 0.0
2017-Nov-07 18:00N 29°44' W 095°17'0 0.0
2017-Nov-07 17:30N 29°44' W 095°17'0 0.0
2017-Nov-07 17:00N 29°44' W 095°17'0 0.0
2017-Nov-07 16:30N 29°44' W 095°17'0 0.0
2017-Nov-07 15:59N 29°44' W 095°17'0 0.0
2017-Nov-07 15:29N 29°44' W 095°17'0 0.0
2017-Nov-07 14:58N 29°44' W 095°17'0 0.0
2017-Nov-07 13:06N 29°44' W 095°17'0 0.1
2017-Nov-07 13:00N 29°44' W 095°17'0 0.0
2017-Nov-07 12:30N 29°44' W 095°17'0 0.3
2017-Nov-07 12:00N 29°44' W 095°17'1 1.6
2017-Nov-07 11:30N 29°44' W 095°16'3 4.2
2017-Nov-07 10:51N 29°44' W 095°13'3 4.3
2017-Nov-07 10:07N 29°44' W 095°09'4 0.1
2017-Nov-05 21:48N 29°46' W 095°05'1 0.0
2017-Nov-04 22:03N 29°46' W 095°05'1 7.4
2017-Nov-04 21:58N 29°46' W 095°05'3 7.5
2017-Nov-04 21:30N 29°44' W 095°02'3 6.9
2017-Nov-04 21:01N 29°41' W 094°59'4 7.5
2017-Nov-04 20:31N 29°38' W 094°58'4 7.6
2017-Nov-04 20:01N 29°34' W 094°55'6 0.2
2017-Nov-03 12:03N 29°30' W 094°52'1 7.1
2017-Nov-03 11:55N 29°31' W 094°53'3 7.2
2017-Nov-03 11:30N 29°33' W 094°55'3 6.9
2017-Nov-03 11:01N 29°36' W 094°57'4 6.9
2017-Nov-03 10:26N 29°39' W 094°58'3 7.0
2017-Nov-03 10:00N 29°42' W 095°00'4 6.5
2017-Nov-03 09:21N 29°45' W 095°04'3 0.5
2017-Nov-03 03:58N 29°47' W 095°06'3 5.2
2017-Nov-03 03:29N 29°44' W 095°07'4 7.1
2017-Nov-03 02:58N 29°45' W 095°11'3 5.6
2017-Nov-03 02:30N 29°44' W 095°14'0 0.0
2017-Nov-03 02:00N 29°44' W 095°14'2 2.9
2017-Nov-03 01:28N 29°44' W 095°12'2 2.9
2017-Nov-03 00:57N 29°45' W 095°10'3 5.6
2017-Nov-03 00:22N 29°44' W 095°07'  

Dump ship's entire track history